Flight Track Log - Related Links

Times and Time Zones

All times are in EDT time to prevent confusion due to time zone crossing. See the N30VP flight status page for this flight to view local times or setup timezone preferences in your user account.


Time Position Orientation Groundspeed Altitude Reporting Facility
EDT Latitude Longitude Course Direction KTS MPH feet Rate Location/Type
Sat 03:36:24 PM 27.9167 -82.5667 211° Southwest 224 258 5,300  Level Tampa TRACON
Sat 03:37:24 PM 27.9500 -82.6333 300° West 227 261 9,800 2,209 Climbing Tampa TRACON
Sat 03:39:26 PM 28.0894 -82.7419 326° Northwest 328 377 12,000 1,813 Climbing Jacksonville Center
Sat 03:40:26 PM 28.1936 -82.7347 North 340 391 15,300 3,450 Climbing Jacksonville Center
Sat 03:41:26 PM 28.2917 -82.7253 North 340 391 18,900 3,300 Climbing Jacksonville Center
Sat 03:42:26 PM 28.3919 -82.7228 North 347 399 21,900 2,500 Climbing Jacksonville Center
Sat 03:43:26 PM 28.4983 -82.7178 North 361 415 23,900 1,950 Climbing Jacksonville Center
Sat 03:44:26 PM 28.6069 -82.7175 360° North 375 432 25,800 1,050 Climbing Jacksonville Center
Sat 03:45:26 PM 28.7258 -82.7128 North 402 463 26,000 1,050 Climbing Jacksonville Center
Sat 03:46:26 PM 28.8511 -82.7100 North 429 494 27,900 1,950 Climbing Jacksonville Center
Sat 03:47:26 PM 28.9700 -82.7028 North 434 499 29,900 1,800 Climbing Jacksonville Center
Sat 03:48:26 PM 29.0931 -82.7025 360° North 434 499 31,500 1,350 Climbing Jacksonville Center
Sat 03:49:26 PM 29.2142 -82.6975 North 434 499 32,600 1,100 Climbing Jacksonville Center
Sat 03:50:26 PM 29.3372 -82.6947 North 440 506 33,700 1,150 Climbing Jacksonville Center
Sat 03:51:26 PM 29.4625 -82.6850 North 440 506 34,900 1,450 Climbing Jacksonville Center
Sat 03:52:26 PM 29.6003 -82.6728 North 448 516 36,600 1,050 Climbing Jacksonville Center
Sat 03:53:26 PM 29.7275 -82.6486 North 449 517 37,000 200 Climbing Jacksonville Center
Sat 03:54:26 PM 29.8569 -82.6339 North 455 524 37,000  Level Jacksonville Center
Sat 03:55:26 PM 29.9822 -82.6192 North 460 529 37,000  Level Jacksonville Center
Sat 03:56:27 PM 30.1117 -82.6069 North 460 529 37,000  Level Jacksonville Center
Sat 03:57:26 PM 30.2389 -82.5897 North 460 529 37,000 -50 Level Jacksonville Center
Sat 03:58:26 PM 30.3664 -82.5747 North 460 529 36,900  Descending Jacksonville Center
Sat 03:59:26 PM 30.4936 -82.5575 North 460 529 37,000  Climbing Jacksonville Center
Sat 04:00:26 PM 30.6167 -82.5064 20° North 465 535 36,900  Descending Jacksonville Center
Sat 04:01:26 PM 30.7417 -82.4503 21° North 471 542 37,000 50 Climbing Jacksonville Center
Sat 04:02:26 PM 30.8522 -82.4014 21° North 477 549 37,000  Level Jacksonville Center
Sat 04:03:26 PM 30.9753 -82.3450 21° North 477 549 37,000  Level Jacksonville Center
Sat 04:04:26 PM 31.1025 -82.2933 19° North 472 543 37,000  Level Jacksonville Center
Sat 04:05:26 PM 31.2275 -82.2342 22° Northeast 472 543 37,000  Level Jacksonville Center
Sat 04:06:26 PM 31.3503 -82.1797 21° North 472 543 37,000  Level Jacksonville Center
Sat 04:07:26 PM 31.4753 -82.1203 22° Northeast 472 543 37,000  Level Jacksonville Center
Sat 04:08:26 PM 31.6000 -82.0656 20° North 472 543 37,000  Level Jacksonville Center
Sat 04:09:26 PM 31.7353 -82.0008 22° Northeast 473 544 37,000  Level Jacksonville Center
Sat 04:10:26 PM 31.8622 -81.9436 21° North 480 552 37,000  Level Jacksonville Center
Sat 04:11:26 PM 31.9725 -81.8933 21° North 480 552 37,000  Level Jacksonville Center
Sat 04:12:26 PM 32.1142 -81.8281 21° North 475 547 37,000  Level Jacksonville Center
Sat 04:13:26 PM 32.2389 -81.7725 21° North 486 559 37,000  Level Jacksonville Center
Sat 04:14:26 PM 32.3553 -81.7169 22° Northeast 491 565 37,000  Level Jacksonville Center
Sat 04:15:26 PM 32.4944 -81.6511 22° Northeast 491 565 37,000  Level Jacksonville Center
Sat 04:16:26 PM 32.6067 -81.5978 22° Northeast 491 565 37,000  Level Jacksonville Center
Sat 04:17:26 PM 32.7500 -81.5342 20° North 491 565 37,000  Level Jacksonville Center
Sat 04:18:26 PM 32.8767 -81.4728 22° Northeast 491 565 37,000  Level Jacksonville Center
Sat 04:19:26 PM 33.0056 -81.4114 22° Northeast 491 565 37,000  Level Jacksonville Center
Sat 04:20:26 PM 33.1361 -81.3522 21° North 491 565 37,000  Level Jacksonville Center
Sat 04:21:26 PM 33.2647 -81.2903 22° Northeast 491 565 37,000  Level Jacksonville Center
Sat 04:22:26 PM 33.3914 -81.2283 22° Northeast 491 565 37,000  Level Jacksonville Center
Sat 04:23:26 PM 33.5219 -81.1661 22° Northeast 491 565 37,000  Level Jacksonville Center
Sat 04:24:26 PM 33.6506 -81.1061 21° North 496 571 37,000  Level Jacksonville Center
Sat 04:25:26 PM 33.7686 -81.0436 24° Northeast 496 571 37,000  Level Jacksonville Center
Sat 04:26:26 PM 33.8972 -80.9886 20° North 491 565 37,000  Level Jacksonville Center
Sat 04:27:26 PM 34.0278 -80.9256 22° Northeast 491 565 37,000  Level Jacksonville Center
Sat 04:29:55 PM 34.3581 -80.7703 21° North 502 578 37,000  Level Atlanta Center
Sat 04:30:55 PM 34.4875 -80.6972 25° Northeast 507 583 37,000  Level Atlanta Center
Sat 04:31:55 PM 34.6175 -80.6364 21° North 512 589 37,000  Level Atlanta Center
Sat 04:32:55 PM 34.7472 -80.5731 22° Northeast 522 601 37,000  Level Atlanta Center
Sat 04:33:55 PM 34.8786 -80.5042 23° Northeast 516 594 37,000  Level Atlanta Center
Sat 04:34:55 PM 35.0144 -80.4375 22° Northeast 532 612 37,000  Level Atlanta Center
Sat 04:35:55 PM 35.1297 -80.3819 22° Northeast 517 595 37,000  Level Atlanta Center
Sat 04:36:55 PM 35.2611 -80.3150 23° Northeast 524 603 37,000  Level Atlanta Center
Sat 04:37:55 PM 35.3947 -80.2478 22° Northeast 524 603 37,000  Level Atlanta Center
Sat 04:38:55 PM 35.5264 -80.1831 22° Northeast 524 603 37,000  Level Atlanta Center
Sat 04:39:55 PM 35.6556 -80.1156 23° Northeast 524 603 37,000  Level Atlanta Center
Sat 04:41:44 PM 35.8933 -80.0019 21° North 517 595 37,000  Level Washington Center
Sat 04:42:44 PM 36.0272 -79.9325 23° Northeast 517 595 37,000  Level Washington Center
Sat 04:43:44 PM 36.1611 -79.8653 22° Northeast 517 595 37,000  Level Washington Center
Sat 04:44:42 PM 36.2972 -79.7953 23° Northeast 517 595 37,000  Level Washington Center
Sat 04:45:42 PM 36.4397 -79.7178 24° Northeast 517 595 37,000  Level Washington Center
Sat 04:46:44 PM 36.5736 -79.6472 23° Northeast 517 595 37,000 -197 Level Washington Center
Sat 04:47:44 PM 36.7072 -79.5792 22° Northeast 512 589 36,600 -700 Descending Washington Center
Sat 04:48:44 PM 36.8283 -79.5153 23° Northeast 512 589 35,600 -1,050 Descending Washington Center
Sat 04:49:44 PM 36.9619 -79.4442 23° Northeast 512 589 34,500 -1,169 Descending Washington Center
Sat 04:50:42 PM 37.0978 -79.3728 23° Northeast 517 595 33,300 -1,983 Descending Washington Center
Sat 04:51:42 PM 37.2506 -79.2917 23° Northeast 524 603 30,600 -2,331 Descending Washington Center
Sat 04:52:43 PM 37.3883 -79.2200 22° Northeast 524 603 28,600 -1,700 Descending Washington Center
Sat 04:53:42 PM 37.5219 -79.1503 22° Northeast 524 603 27,200 -1,412 Descending Washington Center
Sat 04:54:42 PM 37.6447 -79.0853 23° Northeast 519 597 25,800 -1,450 Descending Washington Center
Sat 04:55:42 PM 37.7761 -79.0178 22° Northeast 519 597 24,300 -1,488 Descending Washington Center
Sat 04:56:43 PM 37.9011 -78.9497 23° Northeast 513 590 22,800 -1,438 Descending Washington Center
Sat 04:57:43 PM 38.0364 -78.8794 22° Northeast 486 559 21,400 -1,785 Descending Washington Center
Sat 04:58:44 PM 38.1528 -78.8158 23° Northeast 466 536 19,200 -2,182 Descending Washington Center
Sat 04:59:44 PM 38.2672 -78.7547 23° Northeast 447 514 17,000 -1,983 Descending Washington Center
Sat 05:00:42 PM 38.3625 -78.7006 24° Northeast 429 494 15,300 -1,750 Descending Washington Center
Sat 05:01:44 PM 38.4639 -78.6436 24° Northeast 411 473 13,500 -1,770 Descending Washington Center
Sat 05:02:44 PM 38.5592 -78.5919 23° Northeast 386 444 11,700 -1,678 Descending Washington Center
Sat 05:03:42 PM 38.6417 -78.5367 28° Northeast 356 410 10,200 -1,563 Descending Washington Center
Sat 05:04:43 PM 38.7183 -78.4786 31° Northeast 327 376 8,600 -1,525 Descending Washington Center
Sat 05:05:44 PM 38.7883 -78.4228 32° Northeast 305 351 7,100 -1,311 Descending Washington Center
Sat 05:06:42 PM 38.8564 -78.3694 31° Northeast 291 335 6,000 -1,271 Descending Washington Center
Sat 05:07:42 PM 38.9178 -78.3236 30° Northeast 269 310 4,600 -1,000 Descending Washington Center
Sat 05:08:42 PM 38.9831 -78.3019 14° North 251 289 4,000 -298 Descending Washington Center
Sat 05:09:43 PM 39.0525 -78.2644 23° Northeast 244 281 4,000 4,426 Level Washington Center
Sat 05:10:44 PM 39.1158 -78.2347 20° North 244 281 13,000 4,538 Climbing Washington Center
Sat 05:11:42 PM 39.1789 -78.2022 22° Northeast 244 281 13,000  Level Washington Center
Sat 05:12:42 PM 39.2042 -78.1897 21° North 244 281 13,000  Level Washington Center
Sat 05:14:00 PM 39.1435 -78.1444 27° Northeast  Level Estimated
Sat 05:21:00 PM 39.1435 -78.1444 27° Northeast  Level Estimated
Sat 05:22:00 PM 39.1435 -78.1444 27° Northeast  Level Estimated
Sat 05:23:00 PM 39.1435 -78.1444 27° Northeast  Level Estimated
Sat 05:24:00 PM 39.1435 -78.1444 27° Northeast  Level Estimated
Sat 05:25:00 PM 39.1435 -78.1444 27° Northeast  Level Estimated
Sat 05:26:00 PM 39.1435 -78.1444 27° Northeast  Level Estimated
Sat 05:27:00 PM 39.1435 -78.1444 27° Northeast  Level Estimated
Sat 05:28:00 PM 39.1435 -78.1444 27° Northeast  Level Estimated
Sat 05:29:00 PM 39.1435 -78.1444 27° Northeast  Level Estimated
Sat 05:30:00 PM 39.1435 -78.1444 27° Northeast  Level Estimated
Sat 05:31:00 PM 39.1435 -78.1444 27° Northeast  Level Estimated
Sat 05:32:00 PM 39.1435 -78.1444 27° Northeast  Level Estimated

Login

Don't have an account? Register now (free) for customized features, flight alerts, and more!